sensor_id;sensor_type;location;lat;lon;timestamp;P1;durP1;ratioP1;P2;durP2;ratioP2
12968;SDS011;6549;53.128;8.182;2022-07-10T00:01:09;5.70;;;1.65;;
12968;SDS011;6549;53.128;8.182;2022-07-10T00:04:10;6.05;;;1.50;;
12968;SDS011;6549;53.128;8.182;2022-07-10T00:07:10;8.00;;;1.63;;
12968;SDS011;6549;53.128;8.182;2022-07-10T00:10:10;8.32;;;1.45;;
12968;SDS011;6549;53.128;8.182;2022-07-10T00:13:11;7.90;;;1.48;;
12968;SDS011;6549;53.128;8.182;2022-07-10T00:16:11;9.55;;;1.67;;
12968;SDS011;6549;53.128;8.182;2022-07-10T00:19:11;8.15;;;1.77;;
12968;SDS011;6549;53.128;8.182;2022-07-10T00:22:12;5.97;;;1.63;;
12968;SDS011;6549;53.128;8.182;2022-07-10T00:25:13;5.20;;;1.30;;
12968;SDS011;6549;53.128;8.182;2022-07-10T00:28:13;8.70;;;1.60;;
12968;SDS011;6549;53.128;8.182;2022-07-10T00:31:13;8.13;;;1.83;;
12968;SDS011;6549;53.128;8.182;2022-07-10T00:34:14;6.60;;;1.40;;
12968;SDS011;6549;53.128;8.182;2022-07-10T00:37:14;6.35;;;1.23;;
12968;SDS011;6549;53.128;8.182;2022-07-10T00:40:14;5.05;;;1.70;;
12968;SDS011;6549;53.128;8.182;2022-07-10T00:43:15;8.52;;;1.40;;
12968;SDS011;6549;53.128;8.182;2022-07-10T00:46:15;5.05;;;1.38;;
12968;SDS011;6549;53.128;8.182;2022-07-10T00:49:20;9.60;;;1.55;;
12968;SDS011;6549;53.128;8.182;2022-07-10T00:52:20;5.53;;;1.30;;
12968;SDS011;6549;53.128;8.182;2022-07-10T00:55:21;6.20;;;1.50;;
12968;SDS011;6549;53.128;8.182;2022-07-10T00:58:22;8.63;;;1.95;;
12968;SDS011;6549;53.128;8.182;2022-07-10T01:01:23;9.05;;;1.65;;
12968;SDS011;6549;53.128;8.182;2022-07-10T01:04:24;7.32;;;1.40;;
12968;SDS011;6549;53.128;8.182;2022-07-10T01:07:24;7.18;;;1.80;;
12968;SDS011;6549;53.128;8.182;2022-07-10T01:10:25;9.10;;;1.83;;
12968;SDS011;6549;53.128;8.182;2022-07-10T01:13:25;7.78;;;1.50;;
12968;SDS011;6549;53.128;8.182;2022-07-10T01:16:26;7.35;;;1.40;;
12968;SDS011;6549;53.128;8.182;2022-07-10T01:19:27;9.48;;;1.65;;
12968;SDS011;6549;53.128;8.182;2022-07-10T01:22:27;5.00;;;1.17;;
12968;SDS011;6549;53.128;8.182;2022-07-10T01:25:28;4.60;;;1.10;;
12968;SDS011;6549;53.128;8.182;2022-07-10T01:28:28;6.20;;;1.60;;
12968;SDS011;6549;53.128;8.182;2022-07-10T01:31:30;3.35;;;1.10;;
12968;SDS011;6549;53.128;8.182;2022-07-10T01:34:30;9.57;;;1.27;;
12968;SDS011;6549;53.128;8.182;2022-07-10T01:37:31;8.35;;;1.70;;
12968;SDS011;6549;53.128;8.182;2022-07-10T01:40:32;6.25;;;1.20;;
12968;SDS011;6549;53.128;8.182;2022-07-10T01:43:33;5.68;;;1.15;;
12968;SDS011;6549;53.128;8.182;2022-07-10T01:46:33;5.63;;;1.30;;
12968;SDS011;6549;53.128;8.182;2022-07-10T01:49:33;6.47;;;1.60;;
12968;SDS011;6549;53.128;8.182;2022-07-10T01:52:34;6.60;;;1.42;;
12968;SDS011;6549;53.128;8.182;2022-07-10T01:55:34;9.10;;;1.70;;
12968;SDS011;6549;53.128;8.182;2022-07-10T01:58:35;5.45;;;1.23;;
12968;SDS011;6549;53.128;8.182;2022-07-10T02:01:36;4.53;;;1.30;;
12968;SDS011;6549;53.128;8.182;2022-07-10T02:04:36;7.80;;;1.60;;
12968;SDS011;6549;53.128;8.182;2022-07-10T02:07:42;3.95;;;1.35;;
12968;SDS011;6549;53.128;8.182;2022-07-10T02:10:43;5.45;;;1.30;;
12968;SDS011;6549;53.128;8.182;2022-07-10T02:13:45;4.13;;;1.33;;
12968;SDS011;6549;53.128;8.182;2022-07-10T02:16:45;4.68;;;1.30;;
12968;SDS011;6549;53.128;8.182;2022-07-10T02:19:46;5.78;;;1.30;;
12968;SDS011;6549;53.128;8.182;2022-07-10T02:22:46;4.50;;;1.30;;
12968;SDS011;6549;53.128;8.182;2022-07-10T02:25:47;4.93;;;1.30;;
12968;SDS011;6549;53.128;8.182;2022-07-10T02:28:47;6.05;;;1.25;;
12968;SDS011;6549;53.128;8.182;2022-07-10T02:31:47;5.45;;;1.40;;
12968;SDS011;6549;53.128;8.182;2022-07-10T02:34:47;4.75;;;1.35;;
12968;SDS011;6549;53.128;8.182;2022-07-10T02:37:48;5.38;;;1.30;;
12968;SDS011;6549;53.128;8.182;2022-07-10T02:40:48;5.97;;;1.60;;
12968;SDS011;6549;53.128;8.182;2022-07-10T02:43:48;6.30;;;1.27;;
12968;SDS011;6549;53.128;8.182;2022-07-10T02:46:49;6.07;;;1.45;;
12968;SDS011;6549;53.128;8.182;2022-07-10T02:49:49;6.63;;;1.50;;
12968;SDS011;6549;53.128;8.182;2022-07-10T02:52:49;6.63;;;1.45;;
12968;SDS011;6549;53.128;8.182;2022-07-10T02:55:50;9.02;;;1.48;;
12968;SDS011;6549;53.128;8.182;2022-07-10T02:58:50;7.20;;;1.88;;
12968;SDS011;6549;53.128;8.182;2022-07-10T03:01:50;5.95;;;1.70;;
12968;SDS011;6549;53.128;8.182;2022-07-10T03:04:51;7.18;;;1.60;;
12968;SDS011;6549;53.128;8.182;2022-07-10T03:07:51;6.15;;;1.63;;
12968;SDS011;6549;53.128;8.182;2022-07-10T03:10:51;8.70;;;1.77;;
12968;SDS011;6549;53.128;8.182;2022-07-10T03:13:52;6.45;;;1.65;;
12968;SDS011;6549;53.128;8.182;2022-07-10T03:16:52;6.05;;;1.48;;
12968;SDS011;6549;53.128;8.182;2022-07-10T03:19:53;4.45;;;1.27;;
12968;SDS011;6549;53.128;8.182;2022-07-10T03:22:53;5.55;;;1.52;;
12968;SDS011;6549;53.128;8.182;2022-07-10T03:25:53;5.40;;;1.65;;
12968;SDS011;6549;53.128;8.182;2022-07-10T03:28:54;8.43;;;1.65;;
12968;SDS011;6549;53.128;8.182;2022-07-10T03:31:54;4.88;;;1.33;;
12968;SDS011;6549;53.128;8.182;2022-07-10T03:34:54;7.65;;;1.80;;
12968;SDS011;6549;53.128;8.182;2022-07-10T03:37:55;5.80;;;1.50;;
12968;SDS011;6549;53.128;8.182;2022-07-10T03:40:55;6.20;;;1.67;;
12968;SDS011;6549;53.128;8.182;2022-07-10T03:43:55;6.68;;;1.67;;
12968;SDS011;6549;53.128;8.182;2022-07-10T03:46:56;7.57;;;1.67;;
12968;SDS011;6549;53.128;8.182;2022-07-10T03:49:56;7.15;;;1.70;;
12968;SDS011;6549;53.128;8.182;2022-07-10T03:52:56;6.20;;;1.67;;
12968;SDS011;6549;53.128;8.182;2022-07-10T03:55:57;4.40;;;1.30;;
12968;SDS011;6549;53.128;8.182;2022-07-10T03:58:57;3.42;;;1.63;;
12968;SDS011;6549;53.128;8.182;2022-07-10T04:01:57;4.45;;;1.50;;
12968;SDS011;6549;53.128;8.182;2022-07-10T04:04:57;4.93;;;1.38;;
12968;SDS011;6549;53.128;8.182;2022-07-10T04:07:59;5.68;;;1.50;;
12968;SDS011;6549;53.128;8.182;2022-07-10T04:11:00;3.50;;;1.20;;
12968;SDS011;6549;53.128;8.182;2022-07-10T04:14:00;6.65;;;1.60;;
12968;SDS011;6549;53.128;8.182;2022-07-10T04:17:00;5.78;;;1.60;;
12968;SDS011;6549;53.128;8.182;2022-07-10T04:20:01;5.63;;;1.80;;
12968;SDS011;6549;53.128;8.182;2022-07-10T04:23:02;8.10;;;1.58;;
12968;SDS011;6549;53.128;8.182;2022-07-10T04:26:02;5.13;;;1.67;;
12968;SDS011;6549;53.128;8.182;2022-07-10T04:29:02;11.93;;;1.98;;
12968;SDS011;6549;53.128;8.182;2022-07-10T04:32:03;7.30;;;1.50;;
12968;SDS011;6549;53.128;8.182;2022-07-10T04:35:03;7.80;;;1.70;;
12968;SDS011;6549;53.128;8.182;2022-07-10T04:38:04;5.38;;;1.30;;
12968;SDS011;6549;53.128;8.182;2022-07-10T04:41:05;5.90;;;1.40;;
12968;SDS011;6549;53.128;8.182;2022-07-10T04:44:05;6.28;;;1.50;;
12968;SDS011;6549;53.128;8.182;2022-07-10T04:47:06;5.72;;;1.60;;
12968;SDS011;6549;53.128;8.182;2022-07-10T04:50:06;4.38;;;1.38;;
12968;SDS011;6549;53.128;8.182;2022-07-10T04:53:07;5.60;;;1.40;;
12968;SDS011;6549;53.128;8.182;2022-07-10T04:56:07;8.98;;;1.80;;
12968;SDS011;6549;53.128;8.182;2022-07-10T04:59:08;6.03;;;1.60;;
12968;SDS011;6549;53.128;8.182;2022-07-10T05:02:09;8.73;;;1.73;;
12968;SDS011;6549;53.128;8.182;2022-07-10T05:05:09;7.43;;;1.52;;
12968;SDS011;6549;53.128;8.182;2022-07-10T05:08:10;6.20;;;1.80;;
12968;SDS011;6549;53.128;8.182;2022-07-10T05:11:10;9.40;;;2.05;;
12968;SDS011;6549;53.128;8.182;2022-07-10T05:14:10;6.30;;;1.80;;
12968;SDS011;6549;53.128;8.182;2022-07-10T05:17:11;6.55;;;1.80;;
12968;SDS011;6549;53.128;8.182;2022-07-10T05:20:11;5.82;;;1.67;;
12968;SDS011;6549;53.128;8.182;2022-07-10T05:23:11;6.95;;;1.85;;
12968;SDS011;6549;53.128;8.182;2022-07-10T05:26:12;7.15;;;1.67;;
12968;SDS011;6549;53.128;8.182;2022-07-10T05:29:12;6.82;;;1.60;;
12968;SDS011;6549;53.128;8.182;2022-07-10T05:32:13;8.15;;;2.28;;
12968;SDS011;6549;53.128;8.182;2022-07-10T05:35:13;8.90;;;2.05;;
12968;SDS011;6549;53.128;8.182;2022-07-10T05:38:14;7.07;;;1.63;;
12968;SDS011;6549;53.128;8.182;2022-07-10T05:41:15;4.88;;;1.70;;
12968;SDS011;6549;53.128;8.182;2022-07-10T05:44:15;5.93;;;1.65;;
12968;SDS011;6549;53.128;8.182;2022-07-10T05:47:19;5.72;;;1.75;;
12968;SDS011;6549;53.128;8.182;2022-07-10T05:50:19;8.32;;;1.83;;
12968;SDS011;6549;53.128;8.182;2022-07-10T05:53:20;6.65;;;1.70;;
12968;SDS011;6549;53.128;8.182;2022-07-10T05:56:20;7.40;;;2.05;;
12968;SDS011;6549;53.128;8.182;2022-07-10T05:59:20;8.80;;;1.88;;
12968;SDS011;6549;53.128;8.182;2022-07-10T06:02:21;10.25;;;2.20;;
12968;SDS011;6549;53.128;8.182;2022-07-10T06:05:22;7.38;;;2.00;;
12968;SDS011;6549;53.128;8.182;2022-07-10T06:08:22;5.97;;;1.63;;
12968;SDS011;6549;53.128;8.182;2022-07-10T06:11:23;7.80;;;1.90;;
12968;SDS011;6549;53.128;8.182;2022-07-10T06:14:23;6.00;;;1.70;;
12968;SDS011;6549;53.128;8.182;2022-07-10T06:17:24;7.55;;;2.00;;
12968;SDS011;6549;53.128;8.182;2022-07-10T06:20:24;8.77;;;1.67;;
12968;SDS011;6549;53.128;8.182;2022-07-10T06:23:26;7.53;;;1.80;;
12968;SDS011;6549;53.128;8.182;2022-07-10T06:26:26;8.75;;;2.17;;
12968;SDS011;6549;53.128;8.182;2022-07-10T06:29:26;6.68;;;1.95;;
12968;SDS011;6549;53.128;8.182;2022-07-10T06:32:27;6.55;;;1.70;;
12968;SDS011;6549;53.128;8.182;2022-07-10T06:35:27;8.20;;;1.95;;
12968;SDS011;6549;53.128;8.182;2022-07-10T06:38:27;8.23;;;1.80;;
12968;SDS011;6549;53.128;8.182;2022-07-10T06:41:28;8.05;;;1.95;;
12968;SDS011;6549;53.128;8.182;2022-07-10T06:44:28;6.15;;;1.90;;
12968;SDS011;6549;53.128;8.182;2022-07-10T06:47:29;9.05;;;2.22;;
12968;SDS011;6549;53.128;8.182;2022-07-10T06:50:47;9.23;;;1.75;;
12968;SDS011;6549;53.128;8.182;2022-07-10T06:53:47;7.38;;;1.85;;
12968;SDS011;6549;53.128;8.182;2022-07-10T06:56:48;11.50;;;2.42;;
12968;SDS011;6549;53.128;8.182;2022-07-10T06:59:48;11.10;;;1.95;;
12968;SDS011;6549;53.128;8.182;2022-07-10T07:02:49;6.10;;;1.90;;
12968;SDS011;6549;53.128;8.182;2022-07-10T07:05:49;8.30;;;1.88;;
12968;SDS011;6549;53.128;8.182;2022-07-10T07:08:50;9.25;;;2.00;;
12968;SDS011;6549;53.128;8.182;2022-07-10T07:11:50;9.73;;;2.00;;
12968;SDS011;6549;53.128;8.182;2022-07-10T07:14:50;10.18;;;2.00;;
12968;SDS011;6549;53.128;8.182;2022-07-10T07:17:51;11.27;;;2.10;;
12968;SDS011;6549;53.128;8.182;2022-07-10T07:21:07;8.90;;;1.95;;
12968;SDS011;6549;53.128;8.182;2022-07-10T07:24:26;10.85;;;2.20;;
12968;SDS011;6549;53.128;8.182;2022-07-10T07:27:26;7.47;;;1.98;;
12968;SDS011;6549;53.128;8.182;2022-07-10T07:30:27;8.68;;;1.70;;
12968;SDS011;6549;53.128;8.182;2022-07-10T07:33:27;7.53;;;1.95;;
12968;SDS011;6549;53.128;8.182;2022-07-10T07:36:28;9.18;;;2.10;;
12968;SDS011;6549;53.128;8.182;2022-07-10T07:39:28;10.45;;;2.35;;
12968;SDS011;6549;53.128;8.182;2022-07-10T07:42:29;9.20;;;2.03;;
12968;SDS011;6549;53.128;8.182;2022-07-10T07:45:29;8.02;;;2.08;;
12968;SDS011;6549;53.128;8.182;2022-07-10T07:48:29;11.00;;;2.13;;
12968;SDS011;6549;53.128;8.182;2022-07-10T07:51:30;12.02;;;2.17;;
12968;SDS011;6549;53.128;8.182;2022-07-10T07:54:30;8.32;;;2.10;;
12968;SDS011;6549;53.128;8.182;2022-07-10T07:57:30;9.93;;;2.08;;
12968;SDS011;6549;53.128;8.182;2022-07-10T08:00:31;10.75;;;2.15;;
12968;SDS011;6549;53.128;8.182;2022-07-10T08:03:31;9.77;;;2.10;;
12968;SDS011;6549;53.128;8.182;2022-07-10T08:06:32;10.98;;;1.83;;
12968;SDS011;6549;53.128;8.182;2022-07-10T08:09:32;9.90;;;1.88;;
12968;SDS011;6549;53.128;8.182;2022-07-10T08:12:32;8.02;;;1.95;;
12968;SDS011;6549;53.128;8.182;2022-07-10T08:15:50;5.72;;;1.50;;
12968;SDS011;6549;53.128;8.182;2022-07-10T08:18:54;8.55;;;1.83;;
12968;SDS011;6549;53.128;8.182;2022-07-10T08:26:14;6.13;;;1.85;;
12968;SDS011;6549;53.128;8.182;2022-07-10T08:29:29;6.30;;;1.50;;
12968;SDS011;6549;53.128;8.182;2022-07-10T08:32:30;7.78;;;1.67;;
12968;SDS011;6549;53.128;8.182;2022-07-10T08:35:31;6.15;;;1.80;;
12968;SDS011;6549;53.128;8.182;2022-07-10T08:38:31;7.88;;;1.70;;
12968;SDS011;6549;53.128;8.182;2022-07-10T08:41:32;7.30;;;1.75;;
12968;SDS011;6549;53.128;8.182;2022-07-10T08:47:35;9.90;;;2.13;;
12968;SDS011;6549;53.128;8.182;2022-07-10T08:50:37;6.68;;;1.80;;
12968;SDS011;6549;53.128;8.182;2022-07-10T08:53:44;8.48;;;1.77;;
12968;SDS011;6549;53.128;8.182;2022-07-10T08:56:44;9.70;;;1.70;;
12968;SDS011;6549;53.128;8.182;2022-07-10T08:59:45;7.07;;;1.80;;
12968;SDS011;6549;53.128;8.182;2022-07-10T09:02:45;9.15;;;1.88;;
12968;SDS011;6549;53.128;8.182;2022-07-10T09:05:46;6.15;;;1.55;;
12968;SDS011;6549;53.128;8.182;2022-07-10T09:08:59;7.07;;;1.90;;
12968;SDS011;6549;53.128;8.182;2022-07-10T09:12:01;5.65;;;1.50;;
12968;SDS011;6549;53.128;8.182;2022-07-10T09:15:15;6.22;;;1.70;;
12968;SDS011;6549;53.128;8.182;2022-07-10T09:18:18;11.20;;;2.10;;
12968;SDS011;6549;53.128;8.182;2022-07-10T09:21:22;6.95;;;1.70;;
12968;SDS011;6549;53.128;8.182;2022-07-10T09:24:23;9.75;;;1.88;;
12968;SDS011;6549;53.128;8.182;2022-07-10T09:27:24;8.65;;;2.13;;
12968;SDS011;6549;53.128;8.182;2022-07-10T09:30:34;6.63;;;1.90;;
12968;SDS011;6549;53.128;8.182;2022-07-10T09:33:35;7.70;;;1.80;;
12968;SDS011;6549;53.128;8.182;2022-07-10T09:36:37;10.43;;;1.90;;
12968;SDS011;6549;53.128;8.182;2022-07-10T09:39:37;9.35;;;1.92;;
12968;SDS011;6549;53.128;8.182;2022-07-10T09:42:46;10.30;;;2.25;;
12968;SDS011;6549;53.128;8.182;2022-07-10T09:45:47;9.15;;;1.95;;
12968;SDS011;6549;53.128;8.182;2022-07-10T09:48:48;8.48;;;1.90;;
12968;SDS011;6549;53.128;8.182;2022-07-10T09:52:00;11.73;;;1.85;;
12968;SDS011;6549;53.128;8.182;2022-07-10T09:55:00;9.30;;;2.08;;
12968;SDS011;6549;53.128;8.182;2022-07-10T09:58:03;8.48;;;2.00;;
12968;SDS011;6549;53.128;8.182;2022-07-10T10:04:07;6.03;;;1.85;;
12968;SDS011;6549;53.128;8.182;2022-07-10T10:07:09;11.88;;;2.13;;
12968;SDS011;6549;53.128;8.182;2022-07-10T10:10:12;8.50;;;2.72;;
12968;SDS011;6549;53.128;8.182;2022-07-10T10:13:15;5.43;;;1.65;;
12968;SDS011;6549;53.128;8.182;2022-07-10T10:16:23;6.18;;;1.85;;
12968;SDS011;6549;53.128;8.182;2022-07-10T10:19:25;5.45;;;1.73;;
12968;SDS011;6549;53.128;8.182;2022-07-10T10:22:45;7.78;;;1.77;;
12968;SDS011;6549;53.128;8.182;2022-07-10T10:25:49;6.80;;;2.00;;
12968;SDS011;6549;53.128;8.182;2022-07-10T10:28:51;9.13;;;2.03;;
12968;SDS011;6549;53.128;8.182;2022-07-10T10:31:52;11.52;;;2.50;;
12968;SDS011;6549;53.128;8.182;2022-07-10T10:34:53;6.70;;;2.05;;
12968;SDS011;6549;53.128;8.182;2022-07-10T10:37:57;8.48;;;2.00;;
12968;SDS011;6549;53.128;8.182;2022-07-10T10:41:21;10.90;;;2.20;;
12968;SDS011;6549;53.128;8.182;2022-07-10T10:44:33;6.45;;;2.05;;
12968;SDS011;6549;53.128;8.182;2022-07-10T10:48:09;7.32;;;2.35;;
12968;SDS011;6549;53.128;8.182;2022-07-10T10:51:02;6.05;;;2.00;;
12968;SDS011;6549;53.128;8.182;2022-07-10T10:54:05;5.57;;;1.83;;
12968;SDS011;6549;53.128;8.182;2022-07-10T10:57:10;8.30;;;1.83;;
12968;SDS011;6549;53.128;8.182;2022-07-10T11:00:15;8.07;;;2.10;;
12968;SDS011;6549;53.128;8.182;2022-07-10T11:03:31;7.15;;;2.00;;
12968;SDS011;6549;53.128;8.182;2022-07-10T11:10:15;8.50;;;1.90;;
12968;SDS011;6549;53.128;8.182;2022-07-10T11:13:27;9.95;;;2.05;;
12968;SDS011;6549;53.128;8.182;2022-07-10T11:16:30;8.43;;;1.90;;
12968;SDS011;6549;53.128;8.182;2022-07-10T11:19:33;6.60;;;1.70;;
12968;SDS011;6549;53.128;8.182;2022-07-10T11:22:43;5.68;;;1.55;;
12968;SDS011;6549;53.128;8.182;2022-07-10T11:25:53;5.80;;;1.70;;
12968;SDS011;6549;53.128;8.182;2022-07-10T11:29:02;4.13;;;1.40;;
12968;SDS011;6549;53.128;8.182;2022-07-10T11:32:07;10.65;;;2.15;;
12968;SDS011;6549;53.128;8.182;2022-07-10T11:35:11;6.35;;;1.48;;
12968;SDS011;6549;53.128;8.182;2022-07-10T11:38:12;7.55;;;1.77;;
12968;SDS011;6549;53.128;8.182;2022-07-10T11:41:15;8.70;;;1.80;;
12968;SDS011;6549;53.128;8.182;2022-07-10T11:44:17;5.88;;;1.70;;
12968;SDS011;6549;53.128;8.182;2022-07-10T11:47:20;7.70;;;1.80;;
12968;SDS011;6549;53.128;8.182;2022-07-10T11:50:22;7.93;;;1.73;;
12968;SDS011;6549;53.128;8.182;2022-07-10T11:53:26;5.75;;;1.60;;
12968;SDS011;6549;53.128;8.182;2022-07-10T11:56:29;3.35;;;1.30;;
12968;SDS011;6549;53.128;8.182;2022-07-10T11:59:34;8.30;;;1.58;;
12968;SDS011;6549;53.128;8.182;2022-07-10T12:02:35;5.05;;;1.38;;
12968;SDS011;6549;53.128;8.182;2022-07-10T12:05:36;9.38;;;1.25;;
12968;SDS011;6549;53.128;8.182;2022-07-10T12:08:42;4.35;;;1.20;;
12968;SDS011;6549;53.128;8.182;2022-07-10T12:11:44;4.25;;;1.30;;
12968;SDS011;6549;53.128;8.182;2022-07-10T12:14:57;3.22;;;0.90;;
12968;SDS011;6549;53.128;8.182;2022-07-10T12:17:58;3.90;;;1.20;;
12968;SDS011;6549;53.128;8.182;2022-07-10T12:20:58;4.15;;;1.10;;
12968;SDS011;6549;53.128;8.182;2022-07-10T12:23:59;4.70;;;1.40;;
12968;SDS011;6549;53.128;8.182;2022-07-10T12:27:02;6.70;;;1.27;;
12968;SDS011;6549;53.128;8.182;2022-07-10T12:30:03;6.15;;;1.38;;
12968;SDS011;6549;53.128;8.182;2022-07-10T12:33:07;4.82;;;1.42;;
12968;SDS011;6549;53.128;8.182;2022-07-10T12:36:09;4.25;;;1.50;;
12968;SDS011;6549;53.128;8.182;2022-07-10T12:39:09;4.45;;;1.50;;
12968;SDS011;6549;53.128;8.182;2022-07-10T12:42:10;4.22;;;1.10;;
12968;SDS011;6549;53.128;8.182;2022-07-10T12:45:11;5.97;;;1.60;;
12968;SDS011;6549;53.128;8.182;2022-07-10T12:48:20;6.13;;;1.55;;
12968;SDS011;6549;53.128;8.182;2022-07-10T12:51:23;6.15;;;1.60;;
12968;SDS011;6549;53.128;8.182;2022-07-10T12:54:29;5.88;;;1.77;;
12968;SDS011;6549;53.128;8.182;2022-07-10T13:00:47;5.72;;;1.20;;
12968;SDS011;6549;53.128;8.182;2022-07-10T13:03:56;5.28;;;1.40;;
12968;SDS011;6549;53.128;8.182;2022-07-10T13:07:11;5.60;;;1.15;;
12968;SDS011;6549;53.128;8.182;2022-07-10T13:10:13;3.15;;;1.00;;
12968;SDS011;6549;53.128;8.182;2022-07-10T13:13:14;2.50;;;0.98;;
12968;SDS011;6549;53.128;8.182;2022-07-10T13:16:15;2.65;;;0.88;;
12968;SDS011;6549;53.128;8.182;2022-07-10T13:19:15;7.38;;;1.60;;
12968;SDS011;6549;53.128;8.182;2022-07-10T13:22:16;1.63;;;0.70;;
12968;SDS011;6549;53.128;8.182;2022-07-10T13:25:17;4.57;;;1.10;;
12968;SDS011;6549;53.128;8.182;2022-07-10T13:28:17;2.45;;;0.80;;
12968;SDS011;6549;53.128;8.182;2022-07-10T13:31:18;3.97;;;1.20;;
12968;SDS011;6549;53.128;8.182;2022-07-10T13:34:19;3.75;;;1.02;;
12968;SDS011;6549;53.128;8.182;2022-07-10T13:37:19;3.03;;;0.88;;
12968;SDS011;6549;53.128;8.182;2022-07-10T13:40:20;2.25;;;0.80;;
12968;SDS011;6549;53.128;8.182;2022-07-10T13:43:20;2.13;;;0.80;;
12968;SDS011;6549;53.128;8.182;2022-07-10T13:46:28;3.85;;;0.88;;
12968;SDS011;6549;53.128;8.182;2022-07-10T13:49:29;2.15;;;0.80;;
12968;SDS011;6549;53.128;8.182;2022-07-10T13:52:30;3.17;;;0.82;;
12968;SDS011;6549;53.128;8.182;2022-07-10T13:55:30;4.07;;;0.82;;
12968;SDS011;6549;53.128;8.182;2022-07-10T13:58:33;2.55;;;0.50;;
12968;SDS011;6549;53.128;8.182;2022-07-10T14:01:34;3.58;;;0.90;;
12968;SDS011;6549;53.128;8.182;2022-07-10T14:04:35;1.55;;;0.63;;
12968;SDS011;6549;53.128;8.182;2022-07-10T14:07:35;3.97;;;0.75;;
12968;SDS011;6549;53.128;8.182;2022-07-10T14:10:35;2.05;;;0.82;;
12968;SDS011;6549;53.128;8.182;2022-07-10T14:13:36;3.28;;;1.05;;
12968;SDS011;6549;53.128;8.182;2022-07-10T14:16:36;4.38;;;0.90;;
12968;SDS011;6549;53.128;8.182;2022-07-10T14:19:37;4.30;;;0.90;;
12968;SDS011;6549;53.128;8.182;2022-07-10T14:22:37;4.50;;;1.10;;
12968;SDS011;6549;53.128;8.182;2022-07-10T14:25:37;5.10;;;1.10;;
12968;SDS011;6549;53.128;8.182;2022-07-10T14:28:38;5.82;;;1.05;;
12968;SDS011;6549;53.128;8.182;2022-07-10T14:31:38;4.30;;;0.80;;
12968;SDS011;6549;53.128;8.182;2022-07-10T14:34:39;6.43;;;1.20;;
12968;SDS011;6549;53.128;8.182;2022-07-10T14:37:39;3.45;;;0.90;;
12968;SDS011;6549;53.128;8.182;2022-07-10T14:40:40;4.40;;;0.85;;
12968;SDS011;6549;53.128;8.182;2022-07-10T14:43:40;2.17;;;0.90;;
12968;SDS011;6549;53.128;8.182;2022-07-10T14:46:41;1.77;;;0.80;;
12968;SDS011;6549;53.128;8.182;2022-07-10T14:49:42;3.72;;;0.98;;
12968;SDS011;6549;53.128;8.182;2022-07-10T14:52:43;3.13;;;1.17;;
12968;SDS011;6549;53.128;8.182;2022-07-10T14:55:43;2.85;;;0.77;;
12968;SDS011;6549;53.128;8.182;2022-07-10T14:58:44;3.83;;;1.00;;
12968;SDS011;6549;53.128;8.182;2022-07-10T15:01:44;5.22;;;1.02;;
12968;SDS011;6549;53.128;8.182;2022-07-10T15:04:45;2.70;;;0.60;;
12968;SDS011;6549;53.128;8.182;2022-07-10T15:07:45;2.63;;;0.85;;
12968;SDS011;6549;53.128;8.182;2022-07-10T15:10:45;3.40;;;1.00;;
12968;SDS011;6549;53.128;8.182;2022-07-10T15:13:46;2.95;;;0.85;;
12968;SDS011;6549;53.128;8.182;2022-07-10T15:16:47;2.70;;;0.70;;
12968;SDS011;6549;53.128;8.182;2022-07-10T15:19:47;2.33;;;0.82;;
12968;SDS011;6549;53.128;8.182;2022-07-10T15:22:47;4.15;;;0.90;;
12968;SDS011;6549;53.128;8.182;2022-07-10T15:25:48;3.13;;;0.80;;
12968;SDS011;6549;53.128;8.182;2022-07-10T15:28:48;3.08;;;0.95;;
12968;SDS011;6549;53.128;8.182;2022-07-10T15:31:48;1.98;;;0.98;;
12968;SDS011;6549;53.128;8.182;2022-07-10T15:34:49;1.90;;;0.90;;
12968;SDS011;6549;53.128;8.182;2022-07-10T15:37:50;2.53;;;0.80;;
12968;SDS011;6549;53.128;8.182;2022-07-10T15:40:50;3.45;;;1.13;;
12968;SDS011;6549;53.128;8.182;2022-07-10T15:43:50;2.83;;;0.70;;
12968;SDS011;6549;53.128;8.182;2022-07-10T15:46:51;2.50;;;0.80;;
12968;SDS011;6549;53.128;8.182;2022-07-10T15:49:51;1.35;;;0.60;;
12968;SDS011;6549;53.128;8.182;2022-07-10T15:52:51;1.73;;;0.70;;
12968;SDS011;6549;53.128;8.182;2022-07-10T15:55:52;1.48;;;0.52;;
12968;SDS011;6549;53.128;8.182;2022-07-10T15:58:52;4.03;;;0.90;;
12968;SDS011;6549;53.128;8.182;2022-07-10T16:01:53;1.90;;;0.60;;
12968;SDS011;6549;53.128;8.182;2022-07-10T16:04:54;3.20;;;0.93;;
12968;SDS011;6549;53.128;8.182;2022-07-10T16:07:55;1.70;;;0.68;;
12968;SDS011;6549;53.128;8.182;2022-07-10T16:10:55;2.90;;;0.73;;
12968;SDS011;6549;53.128;8.182;2022-07-10T16:13:55;2.20;;;0.70;;
12968;SDS011;6549;53.128;8.182;2022-07-10T16:16:57;3.50;;;0.93;;
12968;SDS011;6549;53.128;8.182;2022-07-10T16:19:57;1.35;;;0.65;;
12968;SDS011;6549;53.128;8.182;2022-07-10T16:22:58;2.50;;;0.82;;
12968;SDS011;6549;53.128;8.182;2022-07-10T16:25:58;2.25;;;0.90;;
12968;SDS011;6549;53.128;8.182;2022-07-10T16:29:02;3.58;;;0.93;;
12968;SDS011;6549;53.128;8.182;2022-07-10T16:32:03;3.85;;;0.80;;
12968;SDS011;6549;53.128;8.182;2022-07-10T16:35:04;3.05;;;0.75;;
12968;SDS011;6549;53.128;8.182;2022-07-10T16:38:04;3.28;;;0.70;;
12968;SDS011;6549;53.128;8.182;2022-07-10T16:41:05;2.53;;;0.90;;
12968;SDS011;6549;53.128;8.182;2022-07-10T16:44:06;3.28;;;0.80;;
12968;SDS011;6549;53.128;8.182;2022-07-10T16:47:06;2.03;;;0.77;;
12968;SDS011;6549;53.128;8.182;2022-07-10T16:50:07;2.63;;;0.70;;
12968;SDS011;6549;53.128;8.182;2022-07-10T16:53:08;1.77;;;0.75;;
12968;SDS011;6549;53.128;8.182;2022-07-10T16:56:08;1.67;;;0.70;;
12968;SDS011;6549;53.128;8.182;2022-07-10T16:59:09;1.88;;;0.55;;
12968;SDS011;6549;53.128;8.182;2022-07-10T17:02:09;1.02;;;0.52;;
12968;SDS011;6549;53.128;8.182;2022-07-10T17:05:09;1.98;;;0.60;;
12968;SDS011;6549;53.128;8.182;2022-07-10T17:08:10;2.67;;;0.70;;
12968;SDS011;6549;53.128;8.182;2022-07-10T17:11:12;0.75;;;0.55;;
12968;SDS011;6549;53.128;8.182;2022-07-10T17:14:13;1.65;;;0.47;;
12968;SDS011;6549;53.128;8.182;2022-07-10T17:17:13;1.58;;;0.60;;
12968;SDS011;6549;53.128;8.182;2022-07-10T17:20:14;0.65;;;0.50;;
12968;SDS011;6549;53.128;8.182;2022-07-10T17:23:14;0.88;;;0.35;;
12968;SDS011;6549;53.128;8.182;2022-07-10T17:26:15;1.13;;;0.70;;
12968;SDS011;6549;53.128;8.182;2022-07-10T17:29:15;1.63;;;0.60;;
12968;SDS011;6549;53.128;8.182;2022-07-10T17:32:16;2.25;;;0.70;;
12968;SDS011;6549;53.128;8.182;2022-07-10T17:35:16;0.80;;;0.80;;
12968;SDS011;6549;53.128;8.182;2022-07-10T17:38:17;1.58;;;0.80;;
12968;SDS011;6549;53.128;8.182;2022-07-10T17:41:20;1.58;;;0.90;;
12968;SDS011;6549;53.128;8.182;2022-07-10T17:44:20;1.17;;;0.68;;
12968;SDS011;6549;53.128;8.182;2022-07-10T17:47:20;2.15;;;1.00;;
12968;SDS011;6549;53.128;8.182;2022-07-10T17:50:24;2.47;;;1.02;;
12968;SDS011;6549;53.128;8.182;2022-07-10T17:53:24;2.90;;;1.08;;
12968;SDS011;6549;53.128;8.182;2022-07-10T17:56:24;3.13;;;1.17;;
12968;SDS011;6549;53.128;8.182;2022-07-10T17:59:25;2.15;;;1.40;;
12968;SDS011;6549;53.128;8.182;2022-07-10T18:02:25;3.17;;;1.30;;
12968;SDS011;6549;53.128;8.182;2022-07-10T18:05:26;3.83;;;1.45;;
12968;SDS011;6549;53.128;8.182;2022-07-10T18:08:26;4.63;;;1.80;;
12968;SDS011;6549;53.128;8.182;2022-07-10T18:11:27;3.03;;;1.60;;
12968;SDS011;6549;53.128;8.182;2022-07-10T18:14:27;1.95;;;1.45;;
12968;SDS011;6549;53.128;8.182;2022-07-10T18:17:28;1.92;;;1.35;;
12968;SDS011;6549;53.128;8.182;2022-07-10T18:20:28;1.60;;;1.20;;
12968;SDS011;6549;53.128;8.182;2022-07-10T18:23:33;2.90;;;1.40;;
12968;SDS011;6549;53.128;8.182;2022-07-10T18:26:34;1.90;;;1.42;;
12968;SDS011;6549;53.128;8.182;2022-07-10T18:29:34;2.53;;;1.70;;
12968;SDS011;6549;53.128;8.182;2022-07-10T18:32:35;2.17;;;1.70;;
12968;SDS011;6549;53.128;8.182;2022-07-10T18:36:04;3.28;;;1.80;;
12968;SDS011;6549;53.128;8.182;2022-07-10T18:39:05;3.67;;;1.80;;
12968;SDS011;6549;53.128;8.182;2022-07-10T18:42:09;1.67;;;1.58;;
12968;SDS011;6549;53.128;8.182;2022-07-10T18:45:10;1.60;;;1.50;;
12968;SDS011;6549;53.128;8.182;2022-07-10T18:48:10;2.63;;;1.52;;